Time;durP1;ratioP1;P1;durP2;ratioP2;P2;SDS_P1;SDS_P2;PMS_P1;PMS_P2;Temp;Humidity;BMP_temperature;BMP_pressure;BME280_temperature;BME280_humidity;BME280_pressure;Samples;Min_cycle;Max_cycle;Signal;HPM_P1;HPM_P2
2022/06/12 00:02:23;;;;;;;;;2.25;1.50;;;;;21.67;41.67;101607.63;5056514;28;45468;-65
2022/06/12 00:04:48;;;;;;;;;3.50;2.25;;;;;21.67;41.73;101607.63;5056745;28;45522;-66
2022/06/12 00:07:14;;;;;;;;;1.00;1.00;;;;;21.60;41.40;101611.66;5058039;28;50972;-64
2022/06/12 00:09:39;;;;;;;;;4.25;2.00;;;;;21.53;41.58;101615.72;5076531;28;45498;-66
2022/06/12 00:12:05;;;;;;;;;2.00;2.00;;;;;21.53;41.52;101615.72;5076553;28;45473;-64
2022/06/12 00:14:31;;;;;;;;;1.00;1.00;;;;;21.48;41.47;101605.31;5076540;28;45554;-66
2022/06/12 00:16:56;;;;;;;;;1.25;1.25;;;;;21.36;41.04;101600.72;5056129;28;45640;-63
2022/06/12 00:19:22;;;;;;;;;1.75;1.75;;;;;21.30;41.29;101599.28;5056057;28;46064;-67
2022/06/12 00:21:49;;;;;;;;;2.25;1.50;;;;;21.28;41.68;101614.59;5056123;28;45378;-66
2022/06/12 00:24:17;;;;;;;;;1.25;1.25;;;;;21.31;41.84;101605.53;5056077;28;45533;-69
2022/06/12 00:26:47;;;;;;;;;1.50;1.50;;;;;21.33;41.74;101603.56;5057214;28;45497;-65
2022/06/12 00:29:33;;;;;;;;;2.00;2.00;;;;;21.30;41.68;101599.28;5055931;28;45619;-66
2022/06/12 00:32:03;;;;;;;;;2.00;2.00;;;;;21.30;41.71;101606.44;5071173;28;45464;-66
2022/06/12 00:34:32;;;;;;;;;2.00;2.00;;;;;21.27;41.72;101599.47;5096408;27;45461;-66
2022/06/12 00:36:59;;;;;;;;;2.25;1.25;;;;;21.21;41.99;101610.59;5042957;27;1332757;-65
2022/06/12 00:39:25;;;;;;;;;1.75;1.50;;;;;21.17;41.97;101607.25;5076510;28;46808;-64
2022/06/12 00:41:54;;;;;;;;;2.25;2.25;;;;;21.15;42.26;101617.19;5077072;28;45482;-66
2022/06/12 00:44:22;;;;;;;;;1.75;1.75;;;;;;;;5061869;28;45514;-66
2022/06/12 00:46:51;;;;;;;;;2.00;2.00;;;;;21.04;42.33;101614.34;5057757;28;45646;-69
2022/06/12 00:49:19;;;;;;;;;2.00;2.00;;;;;21.00;42.69;101614.63;5056562;28;45755;-67
2022/06/12 00:51:49;;;;;;;;;3.00;3.00;;;;;20.99;42.52;101621.78;5056858;28;45449;-65
2022/06/12 00:54:15;;;;;;;;;3.25;2.00;;;;;20.94;42.93;101607.84;5056832;28;45516;-67
2022/06/12 00:56:49;;;;;;;;;4.00;2.75;;;;;20.88;43.25;101603.75;5056718;28;45495;-66
2022/06/12 00:59:31;;;;;;;;;3.50;3.25;;;;;20.90;42.77;101607.19;5056766;28;46231;-67
2022/06/12 01:01:58;;;;;;;;;3.00;3.00;;;;;20.80;43.33;101608.72;5057670;28;45590;-66
2022/06/12 01:07:13;;;;;;;;;3.00;3.00;;;;;20.68;43.49;101604.97;5056730;28;45462;-66
2022/06/12 01:09:42;;;;;;;;;1.75;1.75;;;;;20.68;43.34;101606.78;5056562;28;45579;-67
2022/06/12 01:12:13;;;;;;;;;2.50;2.00;;;;;20.64;43.48;101602.59;5070088;28;45510;-66
2022/06/12 01:14:44;;;;;;;;;2.00;2.00;;;;;20.63;43.88;101604.44;5076732;28;45546;-67
2022/06/12 01:17:10;;;;;;;;;1.75;1.75;;;;;20.68;43.37;101612.13;5076707;28;45540;-64
2022/06/12 01:19:41;;;;;;;;;1.00;1.00;;;;;20.69;43.84;101612.06;5076413;28;46131;-65
2022/06/12 01:23:09;;;;;;;;;2.00;2.00;;;;;20.73;43.66;101616.25;5062999;28;45793;-65
2022/06/12 01:26:10;;;;;;;;;1.50;1.50;;;;;20.65;43.65;101617.69;4988795;28;45615;-63
2022/06/12 01:28:39;;;;;;;;;1.75;1.75;;;;;20.60;43.85;101609.06;4993859;28;45391;-65
2022/06/12 01:31:19;;;;;;;;;3.75;3.00;;;;;20.60;43.94;101623.28;5035084;28;46514;-70
2022/06/12 01:33:57;;;;;;;;;1.25;1.25;;;;;20.60;44.03;101623.28;5059154;28;45479;-64
2022/06/12 01:36:37;;;;;;;;;1.50;1.50;;;;;20.48;43.94;101621.34;5064211;28;45561;-66
2022/06/12 01:39:23;;;;;;;;;2.25;2.00;;;;;20.52;44.44;101621.09;5070589;28;45477;-63
2022/06/12 01:41:56;;;;;;;;;2.00;2.00;;;;;20.47;44.17;101620.50;5063772;28;46316;-66
2022/06/12 01:44:27;;;;;;;;;1.25;1.00;;;;;20.32;44.35;101621.41;5060379;28;45508;-70
2022/06/12 01:46:52;;;;;;;;;3.75;1.50;;;;;20.24;44.59;101619.19;5055080;28;45727;-68
2022/06/12 01:49:28;;;;;;;;;3.50;3.00;;;;;20.19;44.49;101618.63;5054889;28;45528;-65
2022/06/12 01:52:12;;;;;;;;;3.50;3.00;;;;;20.24;44.47;101626.38;5061641;28;46285;-65
2022/06/12 01:54:47;;;;;;;;;1.00;1.00;;;;;20.09;44.34;101614.75;5061302;28;45707;-64
2022/06/12 01:57:55;;;;;;;;;2.00;2.00;;;;;20.08;44.36;101621.06;5055650;27;45479;-66
2022/06/12 02:00:25;;;;;;;;;4.00;2.00;;;;;19.98;44.80;101617.22;5050704;28;45441;-65
2022/06/12 02:03:20;;;;;;;;;2.00;2.00;;;;;20.03;44.61;101617.81;5065520;27;45468;-68
2022/06/12 02:06:12;;;;;;;;;2.50;2.50;;;;;20.01;44.23;101631.22;5044490;28;45488;-67
2022/06/12 02:08:50;;;;;;;;;5.50;2.50;;;;;19.90;44.70;101623.00;5055543;28;45463;-66
2022/06/12 02:14:19;;;;;;;;;2.00;1.50;;;;;20.00;44.44;101632.19;5055707;28;45472;-64
2022/06/12 02:16:49;;;;;;;;;3.75;2.75;;;;;20.00;44.76;101631.34;5037213;28;45382;-66
2022/06/12 02:19:21;;;;;;;;;3.00;3.00;;;;;19.94;44.76;101631.72;5067872;28;45432;-66
2022/06/12 02:21:53;;;;;;;;;2.25;2.25;;;;;19.92;44.79;101633.59;5064463;27;45550;-66
2022/06/12 02:24:31;;;;;;;;;2.75;2.75;;;;;19.84;44.47;101632.22;5069260;27;45492;-67
2022/06/12 02:27:11;;;;;;;;;2.75;2.00;;;;;19.83;45.19;101630.50;5075312;28;45372;-65
2022/06/12 02:29:40;;;;;;;;;1.25;1.25;;;;;19.81;45.08;101643.09;5073554;27;45426;-65
2022/06/12 02:32:13;;;;;;;;;1.00;1.00;;;;;19.83;45.10;101635.00;5066638;27;45567;-65
2022/06/12 02:34:45;;;;;;;;;2.75;2.75;;;;;19.90;44.60;101635.50;5072618;28;46616;-65
2022/06/12 02:37:19;;;;;;;;;4.00;1.00;;;;;19.90;44.41;101640.81;5075062;28;45505;-65
2022/06/12 02:39:51;;;;;;;;;1.50;1.00;;;;;19.85;44.72;101646.41;5067820;28;45597;-65
2022/06/12 02:42:25;;;;;;;;;2.00;2.00;;;;;19.72;44.85;101638.28;5075310;28;45581;-64
2022/06/12 02:45:02;;;;;;;;;3.00;3.00;;;;;19.73;44.63;101639.13;5074646;28;46654;-64
2022/06/12 02:47:32;;;;;;;;;3.67;3.00;;;;;19.76;45.42;101637.13;5061137;28;45531;-64
2022/06/12 02:49:58;;;;;;;;;1.00;1.00;;;;;19.86;45.21;101646.34;5036722;28;45483;-67
2022/06/12 02:52:43;;;;;;;;;3.00;2.00;;;;;19.89;44.56;101639.13;5054683;28;45572;-66
2022/06/12 02:55:15;;;;;;;;;2.00;1.00;;;;;19.89;44.59;101637.31;5062612;28;45491;-66
2022/06/12 02:58:06;;;;;;;;;1.00;1.00;;;;;19.88;44.60;101640.03;5069232;27;45535;-64
2022/06/12 03:00:45;;;;;;;;;2.33;2.00;;;;;19.91;44.87;101647.88;5075079;28;46575;-68
2022/06/12 03:03:34;;;;;;;;;5.50;3.00;;;;;19.88;44.55;101646.28;5074906;28;45823;-67
2022/06/12 03:06:00;;;;;;;;;1.25;1.25;;;;;19.77;44.70;101633.53;5055742;27;48351;-66
2022/06/12 03:08:31;;;;;;;;;2.25;2.25;;;;;19.70;45.20;101620.63;5060346;28;45413;-64
2022/06/12 03:11:12;;;;;;;;;3.00;3.00;;;;;19.76;44.84;101634.47;5074844;28;45511;-68
2022/06/12 03:13:38;;;;;;;;;4.00;2.75;;;;;19.81;44.75;101634.22;5075007;28;45480;-66
2022/06/12 03:16:12;;;;;;;;;2.00;2.00;;;;;19.81;44.37;101631.53;5055253;27;48358;-67
2022/06/12 03:18:41;;;;;;;;;3.25;2.75;;;;;19.77;44.54;101630.00;5054637;27;45523;-66
2022/06/12 03:21:06;;;;;;;;;3.25;2.00;;;;;19.79;45.13;101638.78;5054695;28;45398;-68
2022/06/12 03:24:19;;;;;;;;;2.67;2.67;;;;;19.69;45.42;101637.56;5070259;28;45544;-68
2022/06/12 03:27:06;;;;;;;;;2.00;2.00;;;;;19.70;45.26;101642.84;5072778;27;45725;-67
2022/06/12 03:29:50;;;;;;;;;2.00;2.00;;;;;19.71;44.99;101643.69;5054047;27;45438;-67
2022/06/12 03:32:42;;;;;;;;;2.50;2.50;;;;;19.69;44.98;101637.56;5057269;27;45597;-68
2022/06/12 03:35:32;;;;;;;;;4.00;2.75;;;;;19.78;44.17;101635.25;5061390;28;45536;-65
2022/06/12 03:38:04;;;;;;;;;2.25;2.00;;;;;19.79;44.60;101638.78;5058129;27;45622;-66
2022/06/12 03:40:51;;;;;;;;;1.25;1.25;;;;;19.79;44.32;101636.97;5056506;27;45611;-65
2022/06/12 03:43:57;;;;;;;;;2.67;2.00;;;;;19.81;44.65;101636.88;5068665;27;45525;-67
2022/06/12 03:46:38;;;;;;;;;0.75;0.75;;;;;19.79;44.40;101636.97;5090516;27;45540;-66
2022/06/12 03:49:25;;;;;;;;;1.00;1.00;;;;;19.82;44.15;101643.94;5059630;27;46459;-65
2022/06/12 03:51:56;;;;;;;;;1.33;1.33;;;;;19.79;43.85;101636.97;5054722;27;45480;-66
2022/06/12 03:54:57;;;;;;;;;2.75;1.75;;;;;19.67;44.44;101634.16;5074293;28;45553;-67
2022/06/12 03:57:51;;;;;;;;;2.67;2.67;;;;;19.55;44.68;101635.66;5069650;28;45640;-65
2022/06/12 04:00:26;;;;;;;;;1.00;1.00;;;;;19.52;44.95;101634.03;5035825;28;47054;-68
2022/06/12 04:02:59;;;;;;;;;1.00;1.00;;;;;19.46;44.82;101631.72;5054179;28;45550;-65
2022/06/12 04:05:33;;;;;;;;;3.00;2.75;;;;;19.55;44.96;101641.00;5054055;27;45546;-68
2022/06/12 04:08:03;;;;;;;;;2.00;2.00;;;;;19.51;44.73;101632.31;5056254;28;45836;-63
2022/06/12 04:10:34;;;;;;;;;1.00;1.00;;;;;19.42;44.84;101631.03;5056182;27;45430;-64
2022/06/12 04:13:01;;;;;;;;;2.00;2.00;;;;;19.45;44.93;101621.13;5070383;28;45429;-68
2022/06/12 04:15:42;;;;;;;;;2.33;2.33;;;;;19.54;44.57;101626.81;5081043;27;45548;-68
2022/06/12 04:18:08;;;;;;;;;5.00;2.00;;;;;19.59;45.15;101630.06;5079677;27;45462;-67
2022/06/12 04:21:02;;;;;;;;;3.00;3.00;;;;;19.69;44.83;101630.41;5089936;27;46460;-66
2022/06/12 04:23:53;;;;;;;;;2.33;2.33;;;;;19.77;44.83;101633.53;5057102;28;45467;-65
2022/06/12 04:26:31;;;;;;;;;1.67;1.67;;;;;19.73;44.98;101625.78;5068851;27;45538;-65
2022/06/12 04:29:01;;;;;;;;;2.00;1.67;;;;;19.58;45.38;101631.00;5077264;28;45398;-68
2022/06/12 04:31:33;;;;;;;;;2.00;2.00;;;;;19.58;45.05;101635.47;5061194;27;45628;-68
2022/06/12 04:34:31;;;;;;;;;2.33;2.33;;;;;19.63;45.03;101638.75;5067278;28;45403;-67
2022/06/12 04:37:00;;;;;;;;;2.00;2.00;;;;;19.61;45.15;101644.19;5076191;27;45581;-63
2022/06/12 04:39:31;;;;;;;;;2.67;2.67;;;;;19.58;45.12;101646.16;5074469;27;45422;-65
2022/06/12 04:41:57;;;;;;;;;4.33;3.00;;;;;19.59;45.29;101643.41;5056315;28;45477;-66
2022/06/12 04:44:23;;;;;;;;;2.00;2.00;;;;;19.57;45.67;101637.31;5059484;28;45456;-64
2022/06/12 04:46:51;;;;;;;;;2.33;2.33;;;;;19.56;45.09;101645.41;5070119;28;45518;-64
2022/06/12 04:49:20;;;;;;;;;2.00;2.00;;;;;19.59;45.30;101637.22;5062394;28;45607;-66
2022/06/12 04:51:46;;;;;;;;;2.00;2.00;;;;;19.62;45.37;101631.72;5056422;28;46621;-67
2022/06/12 04:54:13;;;;;;;;;2.00;2.00;;;;;19.58;44.99;101630.16;5056232;28;45486;-68
2022/06/12 04:56:38;;;;;;;;;1.33;1.33;;;;;19.61;45.56;101636.19;5075282;27;45352;-65
2022/06/12 04:59:05;;;;;;;;;3.67;3.67;;;;;19.68;45.52;101636.72;5064312;28;45393;-65
2022/06/12 05:01:32;;;;;;;;;4.25;3.00;;;;;19.72;44.72;101635.63;5056332;28;45430;-67
2022/06/12 05:03:58;;;;;;;;;2.00;2.00;;;;;19.75;45.11;101632.75;5071986;27;45454;-66
2022/06/12 05:06:24;;;;;;;;;2.00;2.00;;;;;19.72;44.66;101629.38;5063126;28;45547;-68
2022/06/12 05:08:50;;;;;;;;;5.00;3.33;;;;;19.66;45.14;101622.59;5076648;28;45464;-67
2022/06/12 05:11:16;;;;;;;;;4.00;3.00;;;;;19.54;45.15;101621.47;5074429;28;46059;-68
2022/06/12 05:13:42;;;;;;;;;5.00;2.00;;;;;19.56;45.34;101618.72;5076474;28;45528;-66
2022/06/12 05:16:12;;;;;;;;;2.33;2.33;;;;;19.63;45.07;101633.41;5059593;27;45417;-66
2022/06/12 05:18:38;;;;;;;;;2.33;2.00;;;;;19.50;45.15;101619.91;5046562;28;45562;-65
2022/06/12 05:21:03;;;;;;;;;3.00;3.00;;;;;19.48;45.17;101619.16;5060320;28;45532;-68
2022/06/12 05:23:29;;;;;;;;;3.67;2.00;;;;;19.56;44.93;101624.91;5063049;28;45515;-67
2022/06/12 05:25:54;;;;;;;;;1.67;1.67;;;;;19.64;44.64;101622.66;5054948;27;45454;-69
2022/06/12 05:28:20;;;;;;;;;4.00;2.67;;;;;19.69;44.78;101627.75;5059316;28;45596;-67
2022/06/12 05:30:46;;;;;;;;;2.00;2.00;;;;;19.69;44.23;101630.41;5072745;28;46224;-65
2022/06/12 05:33:12;;;;;;;;;2.00;2.00;;;;;19.66;44.67;101619.94;5072260;27;45526;-65
2022/06/12 05:35:39;;;;;;;;;1.25;1.25;;;;;19.67;43.98;101620.81;5089304;27;46779;-68
2022/06/12 05:38:07;;;;;;;;;4.00;2.33;;;;;19.62;44.26;101629.03;5060796;28;45803;-65
2022/06/12 05:40:35;;;;;;;;;2.33;2.00;;;;;19.60;44.57;101629.13;5075706;28;47673;-65
2022/06/12 05:43:01;;;;;;;;;2.67;1.00;;;;;19.57;44.30;101625.78;5075865;28;45558;-65
2022/06/12 05:45:29;;;;;;;;;2.00;2.00;;;;;19.63;44.44;101633.41;5075466;28;45567;-65
2022/06/12 05:48:04;;;;;;;;;2.00;2.00;;;;;19.57;44.06;101633.78;5055902;28;45424;-66
2022/06/12 05:50:34;;;;;;;;;1.50;1.50;;;;;19.53;43.96;101633.09;5055473;28;45460;-67
2022/06/12 05:53:00;;;;;;;;;1.00;1.00;;;;;19.47;43.94;101638.75;5055507;28;45463;-68
2022/06/12 05:55:25;;;;;;;;;2.00;1.00;;;;;19.46;43.73;101633.53;5056127;27;45527;-63
2022/06/12 05:57:51;;;;;;;;;1.75;1.25;;;;;19.53;44.05;101635.75;5055342;28;45539;-65
2022/06/12 06:00:24;;;;;;;;;2.00;2.00;;;;;19.60;44.00;101650.47;5070986;27;45472;-67
2022/06/12 06:02:50;;;;;;;;;1.00;1.00;;;;;19.64;43.91;101651.16;5067912;27;45845;-66
2022/06/12 06:05:15;;;;;;;;;2.00;2.00;;;;;19.67;43.33;101652.84;5071596;27;45482;-67
2022/06/12 06:07:41;;;;;;;;;5.50;2.00;;;;;19.63;44.06;101646.75;5065213;28;45477;-68
2022/06/12 06:10:11;;;;;;;;;3.25;3.00;;;;;19.64;43.08;101657.38;5063124;27;46152;-64
2022/06/12 06:12:37;;;;;;;;;2.00;1.00;;;;;19.65;43.80;101652.88;5055756;28;45413;-65
2022/06/12 06:15:02;;;;;;;;;1.25;1.25;;;;;19.67;43.04;101658.19;5055444;28;45464;-67
2022/06/12 06:17:28;;;;;;;;;2.25;1.25;;;;;19.61;43.43;101653.97;5037213;28;45453;-67
2022/06/12 06:19:53;;;;;;;;;2.00;2.00;;;;;19.64;42.97;101653.84;5064651;27;45512;-66
2022/06/12 06:22:20;;;;;;;;;5.00;2.25;;;;;19.60;43.00;101655.81;5066126;27;45479;-65
2022/06/12 06:24:46;;;;;;;;;1.25;1.00;;;;;19.65;42.98;101661.75;5077605;27;46027;-66
2022/06/12 06:27:13;;;;;;;;;1.25;1.00;;;;;19.74;43.05;101668.41;5057328;28;45537;-67
2022/06/12 06:29:39;;;;;;;;;1.25;1.25;;;;;19.75;43.37;101664.78;5068910;27;45633;-67
2022/06/12 06:32:07;;;;;;;;;0.75;0.75;;;;;19.81;43.07;101668.91;5072450;27;45407;-65
2022/06/12 06:34:36;;;;;;;;;2.00;2.00;;;;;19.83;42.83;101667.03;5075263;28;45495;-68
2022/06/12 06:37:03;;;;;;;;;1.00;1.00;;;;;19.89;42.64;101661.34;5060405;28;45650;-67
2022/06/12 06:39:28;;;;;;;;;1.00;1.00;;;;;19.93;43.07;101668.19;5054842;28;46309;-65
2022/06/12 06:41:54;;;;;;;;;2.75;1.25;;;;;19.97;42.23;101671.56;5054816;28;45551;-67
2022/06/12 06:47:04;;;;;;;;;2.00;2.00;;;;;20.02;42.65;101672.19;5057236;27;45490;-67
2022/06/12 06:49:30;;;;;;;;;3.50;2.00;;;;;20.00;41.93;101666.06;5065513;28;45522;-66
2022/06/12 06:51:55;;;;;;;;;2.75;2.00;;;;;20.02;42.30;101662.34;5061241;27;45506;-65
2022/06/12 06:54:21;;;;;;;;;1.25;1.25;;;;;20.03;41.69;101660.53;5055549;27;45500;-66
2022/06/12 06:56:47;;;;;;;;;1.00;1.00;;;;;20.11;42.08;101671.63;5076974;27;45428;-65
2022/06/12 06:59:12;;;;;;;;;1.75;1.75;;;;;20.16;41.53;101664.22;5067073;27;46656;-65
2022/06/12 07:01:38;;;;;;;;;1.25;1.25;;;;;20.26;42.06;101669.88;5060458;28;45560;-66
2022/06/12 07:04:04;;;;;;;;;2.00;2.00;;;;;20.29;41.89;101672.38;5073469;28;45554;-67
2022/06/12 07:06:29;;;;;;;;;1.25;1.25;;;;;20.31;41.42;101667.81;5056502;28;45540;-66
2022/06/12 07:08:56;;;;;;;;;2.25;2.25;;;;;20.34;41.60;101675.63;5058993;28;45724;-67
2022/06/12 07:11:25;;;;;;;;;2.50;1.50;;;;;20.42;41.89;101672.50;5058330;28;45720;-66
2022/06/12 07:13:52;;;;;;;;;3.00;2.00;;;;;20.47;40.89;101679.28;5060312;27;45516;-66
2022/06/12 07:16:19;;;;;;;;;2.00;2.00;;;;;20.54;41.25;101678.94;5060260;28;45646;-68
2022/06/12 07:18:45;;;;;;;;;2.00;1.00;;;;;20.61;41.01;101672.28;5060225;28;45808;-66
2022/06/12 07:21:11;;;;;;;;;1.25;1.25;;;;;20.63;40.70;101673.94;5059046;27;45562;-67
2022/06/12 07:23:38;;;;;;;;;1.00;1.00;;;;;20.61;40.51;101670.47;5067207;27;45723;-67
2022/06/12 07:26:08;;;;;;;;;1.00;1.00;;;;;20.65;40.87;101674.66;5094490;27;45516;-67
2022/06/12 07:28:37;;;;;;;;;2.00;2.00;;;;;20.70;40.70;101669.06;5079773;27;46416;-67
2022/06/12 07:31:05;;;;;;;;;1.00;1.00;;;;;20.75;40.00;101672.31;5074058;28;45536;-65
2022/06/12 07:33:30;;;;;;;;;2.00;2.00;;;;;20.77;40.42;101677.53;5060807;28;45472;-68
2022/06/12 07:35:56;;;;;;;;;2.00;2.00;;;;;20.85;40.07;101681.50;5059713;27;45416;-67
2022/06/12 07:38:25;;;;;;;;;3.00;2.00;;;;;20.79;40.30;101668.47;5068236;28;45599;-66
2022/06/12 07:40:57;;;;;;;;;1.50;1.50;;;;;20.86;40.51;101674.31;5057579;28;45429;-65
2022/06/12 07:43:23;;;;;;;;;2.00;2.00;;;;;20.91;40.63;101686.47;5062860;27;45445;-67
2022/06/12 07:45:51;;;;;;;;;14.67;14.67;;;;;20.85;40.08;101686.84;5078262;27;45646;-67
2022/06/12 07:48:17;;;;;;;;;18.00;18.00;;;;;20.84;40.33;101681.56;5069563;28;45483;-66
2022/06/12 07:50:43;;;;;;;;;3.25;2.25;;;;;20.84;40.63;101685.09;5069786;28;45546;-66
2022/06/12 07:53:10;;;;;;;;;3.00;3.00;;;;;20.88;40.58;101681.31;5068863;28;45602;-69
2022/06/12 07:55:36;;;;;;;;;2.00;2.00;;;;;20.79;40.98;101681.00;5063653;27;45566;-71
2022/06/12 07:58:02;;;;;;;;;2.75;1.75;;;;;20.83;41.13;101694.09;5064528;27;46589;-76
2022/06/12 08:00:27;;;;;;;;;2.50;1.75;;;;;20.75;40.78;101674.97;5061321;27;45602;-73
2022/06/12 08:02:52;;;;;;;;;4.00;3.00;;;;;20.69;41.24;101673.53;5045281;28;45580;-73
2022/06/12 08:05:20;;;;;;;;;2.50;1.75;;;;;20.72;41.60;101677.84;5055855;27;45574;-70
2022/06/12 08:07:46;;;;;;;;;1.00;1.00;;;;;20.74;40.99;101687.50;5039622;28;48721;-72
2022/06/12 08:10:13;;;;;;;;;2.50;2.50;;;;;20.71;41.29;101674.31;5071975;27;45492;-69
2022/06/12 08:12:41;;;;;;;;;3.25;2.00;;;;;20.79;40.75;101676.50;5059466;28;45517;-70
2022/06/12 08:15:10;;;;;;;;;2.00;2.00;;;;;20.75;41.05;101669.63;5058071;27;45587;-71
2022/06/12 08:17:35;;;;;;;;;2.00;2.00;;;;;20.83;41.34;101670.03;5056698;28;46597;-71
2022/06/12 08:22:45;;;;;;;;;3.67;3.00;;;;;20.91;41.35;101672.22;5072645;27;45549;-73
2022/06/12 08:25:10;;;;;;;;;3.75;2.00;;;;;20.85;40.98;101668.13;5076674;28;45625;-77
2022/06/12 08:27:36;;;;;;;;;3.00;3.00;;;;;20.84;41.38;101663.72;5072600;28;45617;-79
2022/06/12 08:30:06;;;;;;;;;5.00;3.00;;;;;20.91;41.44;101673.09;5066846;28;45595;-75
2022/06/12 08:32:31;;;;;;;;;2.75;2.75;;;;;20.88;42.07;101662.59;5065594;27;45370;-73
2022/06/12 08:35:05;;;;;;;;;3.00;3.00;;;;;20.93;42.00;101655.13;5074318;28;45460;-72
2022/06/12 08:37:33;;;;;;;;;3.00;3.00;;;;;20.97;41.60;101669.16;5059563;28;45867;-69
2022/06/12 08:40:00;;;;;;;;;2.75;2.00;;;;;21.01;41.95;101649.31;5061035;28;45572;-73
2022/06/12 08:42:32;;;;;;;;;3.50;3.00;;;;;21.09;41.87;101652.38;5057080;28;45495;-71
2022/06/12 08:45:13;;;;;;;;;2.25;2.25;;;;;21.13;41.32;101661.06;5059643;28;45392;-72
2022/06/12 08:47:56;;;;;;;;;1.75;1.75;;;;;21.18;40.38;101650.91;5074068;27;45572;-72
2022/06/12 08:50:31;;;;;;;;;1.25;1.25;;;;;21.14;40.46;101660.97;5056387;28;45503;-71
2022/06/12 08:53:07;;;;;;;;;2.00;2.00;;;;;21.12;40.99;101646.81;5066743;27;45530;-73
2022/06/12 08:55:39;;;;;;;;;2.25;2.25;;;;;21.13;40.82;101643.19;5062205;27;45532;-72
2022/06/12 08:58:21;;;;;;;;;3.50;2.75;;;;;21.13;40.87;101643.19;5074667;28;45576;-73
2022/06/12 09:00:47;;;;;;;;;1.75;1.75;;;;;21.14;40.55;101634.22;5072066;28;45484;-72
2022/06/12 09:03:22;;;;;;;;;2.00;1.50;;;;;21.16;40.20;101634.94;5068736;27;45641;-75
2022/06/12 09:05:51;;;;;;;;;3.50;2.50;;;;;21.15;39.79;101635.06;5056002;27;45556;-73
2022/06/12 09:08:28;;;;;;;;;1.00;1.00;;;;;21.15;39.98;101643.09;5056945;27;45475;-72
2022/06/12 09:11:33;;;;;;;;;1.00;1.00;;;;;21.20;39.56;101635.63;5057167;27;45410;-74
2022/06/12 09:14:08;;;;;;;;;2.75;2.00;;;;;21.24;39.78;101644.31;5073289;28;45512;-72
2022/06/12 09:17:01;;;;;;;;;1.25;1.25;;;;;21.24;39.33;101633.63;5039599;28;45438;-75
2022/06/12 09:19:52;;;;;;;;;1.75;1.75;;;;;21.30;39.18;101636.75;5056277;28;45617;-71
2022/06/12 09:22:28;;;;;;;;;2.00;1.50;;;;;21.35;38.88;101637.31;5071312;28;45491;-72
2022/06/12 09:25:20;;;;;;;;;1.00;1.00;;;;;21.34;37.86;101638.28;5051058;28;45622;-76
2022/06/12 09:27:49;;;;;;;;;2.00;2.00;;;;;21.40;38.63;101639.72;5091828;27;45475;-73
2022/06/12 09:30:42;;;;;;;;;6.75;4.00;;;;;21.45;39.49;101640.28;5056324;28;48306;-73
2022/06/12 09:33:46;;;;;;;;;2.00;2.00;;;;;21.46;38.61;101650.03;5055981;28;45579;-68
2022/06/12 09:36:24;;;;;;;;;2.00;2.00;;;;;21.46;37.09;101644.69;5045045;28;45595;-66
2022/06/12 09:39:28;;;;;;;;;2.00;2.00;;;;;21.46;36.55;101642.00;5061830;28;45526;-66
2022/06/12 09:42:00;;;;;;;;;2.00;2.00;;;;;21.48;37.47;101639.25;5061417;28;45566;-66
2022/06/12 09:44:32;;;;;;;;;3.75;2.00;;;;;21.53;37.52;101642.47;5073684;27;45553;-67
2022/06/12 09:47:33;;;;;;;;;2.75;1.00;;;;;21.54;37.60;101638.84;5071058;28;45502;-69
2022/06/12 09:50:07;;;;;;;;;2.00;2.00;;;;;21.53;37.96;101637.13;5030457;28;45563;-66
2022/06/12 09:52:45;;;;;;;;;2.00;2.00;;;;;21.64;38.42;101639.97;5069769;27;46516;-65
2022/06/12 09:55:20;;;;;;;;;3.25;2.00;;;;;21.69;38.69;101640.53;5055281;28;45433;-64
2022/06/12 09:58:25;;;;;;;;;4.50;2.00;;;;;21.72;38.73;101647.50;5055292;28;45535;-63
2022/06/12 10:01:07;;;;;;;;;2.00;1.25;;;;;21.74;39.06;101649.13;5055191;27;45622;-64
2022/06/12 10:03:47;;;;;;;;;4.25;3.50;;;;;21.75;38.99;101633.91;5059750;27;45527;-64
2022/06/12 10:06:24;;;;;;;;;1.75;1.75;;;;;21.75;39.09;101634.75;5056039;28;45514;-63
2022/06/12 10:09:04;;;;;;;;;3.75;2.00;;;;;21.78;39.15;101628.34;5037471;28;45533;-64
2022/06/12 10:11:36;;;;;;;;;4.75;4.00;;;;;21.81;39.09;101636.16;5055659;27;45565;-64
2022/06/12 10:14:18;;;;;;;;;2.00;2.00;;;;;21.76;39.21;101636.50;5055186;28;46409;-64
2022/06/12 10:16:58;;;;;;;;;2.00;2.00;;;;;21.83;39.33;101639.59;5044183;28;45563;-64
2022/06/12 10:19:35;;;;;;;;;3.00;3.00;;;;;21.84;39.80;101635.97;5055258;27;45442;-65
2022/06/12 10:22:10;;;;;;;;;4.25;4.25;;;;;21.89;39.38;101619.59;5054503;27;45574;-64
2022/06/12 10:24:35;;;;;;;;;2.00;2.00;;;;;21.91;38.92;101636.44;5054614;28;46246;-64
2022/06/12 10:27:07;;;;;;;;;2.50;2.50;;;;;21.90;39.02;101621.34;5055289;28;45417;-64
2022/06/12 10:29:48;;;;;;;;;2.00;2.00;;;;;21.95;39.20;101621.84;5055544;27;45421;-61
2022/06/12 10:32:27;;;;;;;;;4.50;3.00;;;;;21.99;38.79;101628.75;5051869;27;45672;-65
2022/06/12 10:35:12;;;;;;;;;2.00;2.00;;;;;22.00;38.48;101617.94;5069642;28;45692;-65
2022/06/12 10:37:37;;;;;;;;;2.00;2.00;;;;;22.04;38.51;101615.91;5065648;28;45471;-64
2022/06/12 10:40:05;;;;;;;;;3.50;2.00;;;;;22.07;38.90;101621.03;5055006;28;45472;-64
2022/06/12 10:42:44;;;;;;;;;3.25;2.50;;;;;22.12;38.79;101610.03;5070181;28;45487;-64
2022/06/12 10:45:23;;;;;;;;;3.00;3.00;;;;;22.17;38.99;101619.47;5063713;27;46152;-64
2022/06/12 10:47:50;;;;;;;;;3.25;2.25;;;;;22.18;39.29;101613.16;5055497;27;45466;-65
2022/06/12 10:50:25;;;;;;;;;3.00;2.00;;;;;22.21;39.55;101604.06;5059506;27;45532;-64
2022/06/12 10:53:09;;;;;;;;;4.25;2.75;;;;;22.24;39.78;101603.84;5064975;27;45464;-64
2022/06/12 10:56:01;;;;;;;;;3.00;3.00;;;;;22.24;39.68;101596.66;5053897;28;46486;-64
2022/06/12 10:58:51;;;;;;;;;3.00;3.00;;;;;22.27;39.49;101595.59;5057772;27;45748;-64
2022/06/12 11:01:44;;;;;;;;;4.25;3.00;;;;;22.30;39.10;101589.16;5056144;27;45585;-65
2022/06/12 11:04:41;;;;;;;;;3.00;3.00;;;;;22.27;38.13;101588.44;5047596;28;45433;-66
2022/06/12 11:07:26;;;;;;;;;3.00;3.00;;;;;22.32;38.94;101582.72;5054465;28;47948;-74
2022/06/12 11:10:06;;;;;;;;;3.00;3.00;;;;;22.39;39.91;101591.22;5074851;28;45452;-72
2022/06/12 11:13:12;;;;;;;;;77.50;70.00;;;;;22.48;39.33;101579.84;5072344;27;45594;-73
2022/06/12 11:16:08;;;;;;;;;4.50;4.50;;;;;22.53;39.00;101574.16;4992563;28;45755;-74
2022/06/12 11:18:42;;;;;;;;;3.25;3.00;;;;;22.53;38.31;101582.22;5068277;27;46251;-71
2022/06/12 11:21:33;;;;;;;;;4.75;4.75;;;;;22.52;38.62;101567.94;5068107;27;45544;-69
2022/06/12 11:24:24;;;;;;;;;5.00;5.00;;;;;22.58;38.56;101564.84;5047897;28;45579;-67
2022/06/12 11:26:55;;;;;;;;;2.50;2.50;;;;;22.63;37.88;101565.38;5071332;27;45473;-66
2022/06/12 11:30:10;;;;;;;;;3.50;3.50;;;;;22.66;36.82;101554.41;5069265;27;45596;-66
2022/06/12 11:33:01;;;;;;;;;5.00;3.25;;;;;22.71;37.43;101548.72;4996460;28;45407;-63
2022/06/12 11:35:26;;;;;;;;;4.00;4.00;;;;;22.79;37.65;101557.09;4982739;28;45529;-71
2022/06/12 11:38:16;;;;;;;;;2.75;2.75;;;;;22.81;37.05;101552.47;5046619;28;45526;-66
2022/06/12 11:40:57;;;;;;;;;3.50;3.00;;;;;22.84;36.77;101543.34;5075483;27;46379;-67
2022/06/12 11:43:25;;;;;;;;;3.00;3.00;;;;;22.82;35.14;101537.25;5041508;28;45524;-67
2022/06/12 11:46:21;;;;;;;;;5.00;3.25;;;;;22.78;35.49;101530.38;5063302;28;45563;-67
2022/06/12 11:49:13;;;;;;;;;4.75;2.50;;;;;22.82;35.82;101527.34;5069162;28;45389;-66
2022/06/12 11:52:07;;;;;;;;;3.50;3.50;;;;;22.87;35.21;101530.56;5057627;27;45549;-62
2022/06/12 11:55:01;;;;;;;;;3.75;3.75;;;;;22.90;34.55;101526.81;5058127;27;45546;-63
2022/06/12 11:57:42;;;;;;;;;2.50;2.50;;;;;22.93;34.66;101521.22;5039188;28;45495;-65
2022/06/12 12:00:16;;;;;;;;;3.00;3.00;;;;;22.97;34.70;101514.72;5060009;27;45580;-64
2022/06/12 12:03:21;;;;;;;;;4.25;4.25;;;;;23.03;34.88;101521.44;5073089;27;45772;-65
2022/06/12 12:06:11;;;;;;;;;3.00;3.00;;;;;23.04;33.95;101521.31;5018941;28;45819;-63
2022/06/12 12:09:02;;;;;;;;;3.00;3.00;;;;;23.07;34.44;101521.09;5072388;27;45479;-64
2022/06/12 12:11:43;;;;;;;;;3.00;3.00;;;;;23.13;34.76;101515.28;5060101;28;45593;-64
2022/06/12 12:14:17;;;;;;;;;3.50;2.00;;;;;23.18;34.70;101508.72;5079644;27;45701;-64